9HVCA BIKF-BIAR
Flight info
| Callsign | 9HVCA |
|---|---|
| Flight time | 0h 32m |
| Altitude | 27000 |
| Route | M080F270 LUTER3C LUTER DCT ASKUR DCT |
| Aircraft | C700/M-SBDGHM1RWXY/LB2 |
Departure
| Time | 2026-04-30 20:23 |
|---|---|
| Airport | Keflavik International Airport (BIKF) |
Arrival
| Time | 2026-04-30 20:56 |
|---|---|
| Airport | Akureyri International Airport (BIAR) |
| Time | Latitude | Longitude | Altitude | Speed | Heading |
|---|---|---|---|---|---|
| 2026-04-30 20:11 | 63.98191 | -22.58839 | 168 ft | 0 kts | 360° |
| 2026-04-30 20:16 | 63.98190 | -22.58839 | 168 ft | 0 kts | 360° |
| 2026-04-30 20:19 | 63.98197 | -22.58848 | 168 ft | 5 kts | 324° |
| 2026-04-30 20:19 | 63.98203 | -22.58991 | 169 ft | 14 kts | 282° |
| 2026-04-30 20:20 | 63.98322 | -22.59139 | 170 ft | 24 kts | 338° |
| 2026-04-30 20:20 | 63.98485 | -22.59287 | 171 ft | 24 kts | 346° |
| 2026-04-30 20:20 | 63.98653 | -22.59299 | 169 ft | 20 kts | 2° |
| 2026-04-30 20:20 | 63.98809 | -22.59343 | 166 ft | 24 kts | 341° |
| 2026-04-30 20:21 | 63.98944 | -22.59516 | 172 ft | 21 kts | 314° |
| 2026-04-30 20:21 | 63.99056 | -22.59776 | 167 ft | 25 kts | 315° |
| 2026-04-30 20:21 | 63.99169 | -22.60053 | 167 ft | 8 kts | 290° |
| 2026-04-30 20:21 | 63.99171 | -22.60080 | 167 ft | 0 kts | 271° |
| 2026-04-30 20:22 | 63.99173 | -22.60131 | 167 ft | 13 kts | 275° |
| 2026-04-30 20:22 | 63.99169 | -22.60475 | 168 ft | 7 kts | 252° |
| 2026-04-30 20:22 | 63.99128 | -22.60541 | 168 ft | 0 kts | 179° |
| 2026-04-30 20:23 | 63.99085 | -22.60541 | 168 ft | 33 kts | 180° |
| 2026-04-30 20:23 | 63.98536 | -22.60542 | 168 ft | 121 kts | 180° |
| 2026-04-30 20:23 | 63.97503 | -22.60514 | 642 ft | 160 kts | 180° |
| 2026-04-30 20:23 | 63.96284 | -22.60373 | 1601 ft | 195 kts | 180° |
| 2026-04-30 20:24 | 63.94809 | -22.60192 | 2590 ft | 228 kts | 180° |
| 2026-04-30 20:24 | 63.93197 | -22.59141 | 3746 ft | 262 kts | 149° |
| 2026-04-30 20:24 | 63.92044 | -22.55684 | 5064 ft | 295 kts | 112° |
| 2026-04-30 20:24 | 63.91740 | -22.50860 | 6513 ft | 323 kts | 93° |
| 2026-04-30 20:25 | 63.92495 | -22.40597 | 9713 ft | 323 kts | 71° |
| 2026-04-30 20:25 | 63.93207 | -22.35679 | 11119 ft | 334 kts | 72° |
| 2026-04-30 20:26 | 63.94230 | -22.24953 | 14133 ft | 358 kts | 77° |
| 2026-04-30 20:26 | 63.95370 | -22.13728 | 17027 ft | 368 kts | 75° |
| 2026-04-30 20:26 | 63.95937 | -22.08061 | 18449 ft | 367 kts | 76° |
| 2026-04-30 20:27 | 63.97014 | -21.96751 | 20439 ft | 378 kts | 76° |
| 2026-04-30 20:27 | 63.98257 | -21.84198 | 20949 ft | 432 kts | 76° |
| 2026-04-30 20:28 | 63.99551 | -21.70666 | 22776 ft | 444 kts | 76° |
| 2026-04-30 20:28 | 64.00877 | -21.56857 | 24428 ft | 451 kts | 76° |
| 2026-04-30 20:29 | 64.02208 | -21.42730 | 26016 ft | 460 kts | 76° |
| 2026-04-30 20:30 | 64.04291 | -21.20423 | 26895 ft | 510 kts | 76° |
| 2026-04-30 20:30 | 64.06541 | -20.95737 | 26894 ft | 537 kts | 77° |
| 2026-04-30 20:31 | 64.08783 | -20.70667 | 26897 ft | 537 kts | 77° |
| 2026-04-30 20:32 | 64.11848 | -20.46188 | 26882 ft | 532 kts | 60° |
| 2026-04-30 20:32 | 64.15965 | -20.32358 | 26883 ft | 522 kts | 43° |
| 2026-04-30 20:33 | 64.18562 | -20.26628 | 26881 ft | 515 kts | 34° |
| 2026-04-30 20:33 | 64.24406 | -20.17431 | 26894 ft | 511 kts | 26° |
| 2026-04-30 20:33 | 64.27372 | -20.12963 | 26900 ft | 509 kts | 26° |
| 2026-04-30 20:34 | 64.33310 | -20.04056 | 26900 ft | 509 kts | 26° |
| 2026-04-30 20:34 | 64.39245 | -19.95106 | 26893 ft | 510 kts | 26° |
| 2026-04-30 20:35 | 64.42211 | -19.90606 | 26898 ft | 510 kts | 26° |
| 2026-04-30 20:35 | 64.45183 | -19.86105 | 26897 ft | 510 kts | 26° |
| 2026-04-30 20:35 | 64.51105 | -19.77075 | 26897 ft | 509 kts | 26° |
| 2026-04-30 20:36 | 64.54068 | -19.72543 | 26891 ft | 510 kts | 26° |
| 2026-04-30 20:36 | 64.57028 | -19.68004 | 26892 ft | 510 kts | 26° |
| 2026-04-30 20:36 | 64.62937 | -19.58905 | 26891 ft | 513 kts | 27° |
| 2026-04-30 20:37 | 64.65918 | -19.54290 | 26896 ft | 514 kts | 27° |
| 2026-04-30 20:37 | 64.68884 | -19.49688 | 26893 ft | 512 kts | 27° |
| 2026-04-30 20:37 | 64.71854 | -19.45080 | 26897 ft | 513 kts | 27° |
| 2026-04-30 20:37 | 64.74824 | -19.40447 | 26886 ft | 513 kts | 27° |
| 2026-04-30 20:38 | 64.77789 | -19.35812 | 26888 ft | 513 kts | 27° |
| 2026-04-30 20:38 | 64.80752 | -19.31167 | 26888 ft | 513 kts | 27° |
| 2026-04-30 20:38 | 64.83721 | -19.26501 | 26888 ft | 512 kts | 27° |
| 2026-04-30 20:39 | 64.89642 | -19.17159 | 26879 ft | 513 kts | 27° |
| 2026-04-30 20:39 | 64.92599 | -19.12476 | 26866 ft | 513 kts | 28° |
| 2026-04-30 20:39 | 64.95565 | -19.07769 | 26865 ft | 514 kts | 28° |
| 2026-04-30 20:40 | 65.01496 | -18.98340 | 26860 ft | 513 kts | 28° |
| 2026-04-30 20:40 | 65.04440 | -18.93620 | 26862 ft | 502 kts | 28° |
| 2026-04-30 20:40 | 65.07241 | -18.89070 | 26220 ft | 480 kts | 28° |
| 2026-04-30 20:41 | 65.12710 | -18.80314 | 23900 ft | 468 kts | 27° |
| 2026-04-30 20:41 | 65.15378 | -18.75986 | 22688 ft | 461 kts | 28° |
| 2026-04-30 20:41 | 65.18001 | -18.71712 | 21584 ft | 452 kts | 28° |
| 2026-04-30 20:41 | 65.20606 | -18.67740 | 20498 ft | 438 kts | 22° |
| 2026-04-30 20:42 | 65.23246 | -18.64334 | 19748 ft | 423 kts | 22° |
| 2026-04-30 20:42 | 65.25797 | -18.60930 | 19175 ft | 419 kts | 24° |
| 2026-04-30 20:42 | 65.30865 | -18.54102 | 17970 ft | 414 kts | 24° |
| 2026-04-30 20:43 | 65.33360 | -18.50771 | 17373 ft | 407 kts | 24° |
| 2026-04-30 20:43 | 65.35819 | -18.47472 | 16801 ft | 403 kts | 25° |
| 2026-04-30 20:43 | 65.38252 | -18.44183 | 16236 ft | 400 kts | 25° |
| 2026-04-30 20:44 | 65.43067 | -18.37682 | 15094 ft | 394 kts | 25° |
| 2026-04-30 20:44 | 65.45435 | -18.34461 | 14528 ft | 389 kts | 25° |
| 2026-04-30 20:44 | 65.50033 | -18.28209 | 13446 ft | 365 kts | 25° |
| 2026-04-30 20:45 | 65.54261 | -18.22425 | 12445 ft | 335 kts | 25° |
| 2026-04-30 20:45 | 65.56248 | -18.19696 | 11979 ft | 322 kts | 25° |
| 2026-04-30 20:45 | 65.58164 | -18.17076 | 11527 ft | 312 kts | 25° |
| 2026-04-30 20:46 | 65.63695 | -18.09474 | 10252 ft | 304 kts | 25° |
| 2026-04-30 20:46 | 65.65536 | -18.06934 | 9826 ft | 304 kts | 25° |
| 2026-04-30 20:47 | 65.69180 | -18.01887 | 8948 ft | 300 kts | 25° |
| 2026-04-30 20:47 | 65.70990 | -17.99378 | 8521 ft | 298 kts | 25° |
| 2026-04-30 20:48 | 65.74575 | -17.94391 | 7687 ft | 297 kts | 25° |
| 2026-04-30 20:48 | 65.76366 | -17.91886 | 7273 ft | 296 kts | 25° |
| 2026-04-30 20:48 | 65.78144 | -17.89401 | 6860 ft | 292 kts | 24° |
| 2026-04-30 20:48 | 65.79935 | -17.87192 | 6451 ft | 284 kts | 12° |
| 2026-04-30 20:49 | 65.81832 | -17.86854 | 6043 ft | 268 kts | 345° |
| 2026-04-30 20:49 | 65.83532 | -17.88246 | 5670 ft | 251 kts | 322° |
| 2026-04-30 20:49 | 65.84806 | -17.90879 | 5310 ft | 232 kts | 302° |
| 2026-04-30 20:50 | 65.85836 | -17.97759 | 4677 ft | 208 kts | 268° |
| 2026-04-30 20:50 | 65.85662 | -18.01198 | 4380 ft | 198 kts | 253° |
| 2026-04-30 20:50 | 65.85260 | -18.04144 | 4182 ft | 171 kts | 250° |
| 2026-04-30 20:50 | 65.84859 | -18.06804 | 3892 ft | 160 kts | 242° |
| 2026-04-30 20:51 | 65.84247 | -18.08785 | 3695 ft | 138 kts | 230° |
| 2026-04-30 20:51 | 65.82570 | -18.11281 | 3298 ft | 150 kts | 198° |
| 2026-04-30 20:51 | 65.81541 | -18.11706 | 3087 ft | 151 kts | 192° |
| 2026-04-30 20:52 | 65.80469 | -18.11524 | 2885 ft | 157 kts | 179° |
| 2026-04-30 20:52 | 65.79452 | -18.11263 | 2665 ft | 141 kts | 179° |
| 2026-04-30 20:52 | 65.77529 | -18.10702 | 2306 ft | 136 kts | 178° |
| 2026-04-30 20:53 | 65.76604 | -18.10377 | 2300 ft | 131 kts | 178° |
| 2026-04-30 20:53 | 65.75691 | -18.10103 | 2098 ft | 131 kts | 180° |
| 2026-04-30 20:53 | 65.74782 | -18.09828 | 1872 ft | 136 kts | 176° |
| 2026-04-30 20:54 | 65.72950 | -18.08717 | 1426 ft | 135 kts | 173° |
| 2026-04-30 20:54 | 65.72032 | -18.08276 | 1226 ft | 131 kts | 175° |
| 2026-04-30 20:54 | 65.71072 | -18.07917 | 1088 ft | 139 kts | 178° |
| 2026-04-30 20:55 | 65.69274 | -18.07740 | 666 ft | 129 kts | 178° |
| 2026-04-30 20:55 | 65.68368 | -18.07691 | 462 ft | 128 kts | 176° |
| 2026-04-30 20:55 | 65.67491 | -18.07510 | 232 ft | 125 kts | 176° |
| 2026-04-30 20:56 | 65.65903 | -18.07243 | 12 ft | 85 kts | 178° |
| 2026-04-30 20:56 | 65.65513 | -18.07176 | 11 ft | 16 kts | 174° |
| 2026-04-30 20:56 | 65.65479 | -18.07278 | 11 ft | 1 kts | 271° |
| 2026-04-30 20:57 | 65.65477 | -18.07366 | 12 ft | 7 kts | 266° |
| 2026-04-30 20:57 | 65.65476 | -18.07399 | 12 ft | 0 kts | 265° |
| 2026-04-30 20:57 | 65.65466 | -18.07432 | 12 ft | 7 kts | 219° |
| 2026-04-30 20:58 | 65.65484 | -18.07488 | 12 ft | 1 kts | 8° |
| 2026-04-30 20:58 | 65.65484 | -18.07489 | 12 ft | 0 kts | 12° |